Weather, Runways
& NOTAMs

CYYZ - Toronto-Lester B. Pearson International
CYYZ 181300Z 29007KT 15SM FEW090 SCT160 M01/M05 A3023 RMK AC2AC1 SLP247
Suggested Runways: Departures: 23, Arrivals: 24R
CYOW - Ottawa Macdonald-Cartier International
CYOW 181300Z 31003KT 15SM SKC M09/M13 A3024 RMK SLP250
Suggested Runway: 32
CYTZ - Billy Bishop Toronto City
CYTZ 181300Z AUTO 29005KT 280V340 9SM CLR M00/M05 A3025 RMK SLP249
Suggested Runway: 26
CYXU - London International
CYXU 181300Z 27005KT 12SM FEW078 M03/M04 A3025 RMK AC1 BR SLP259
Suggested Runway: 33
CYHM - John C. Munro Hamilton International
CYHM 181300Z 24006KT 15SM FEW060 BKN072 M03/M04 A3024 RMK SC1AC5 SLP252
Suggested Runway: 30
CYKF - Region of Waterloo International
CYKF 181300Z AUTO 27007KT 9SM CLR M02/M04 A3022 RMK SLP249
Suggested Runway: 26
CYAM - Sault Ste. Marie
CYAM 181312Z 06003KT 1 3/4SM -SN OVC016 M09/M10 A3026 RMK SN3SC5 CIG VRB 12-20 SLP262
Suggested Runway: 04
CYTR - Canadian Forces Base Trenton
CYTR 181300Z 34003KT 15SM FEW040 SCT065 M02/M06 A3025 RMK SC1SC4 SLP249
Suggested Runway: 06
CYOO - Toronto/Oshawa Executive
CYOO 181300Z AUTO 34004KT 280V030 9SM CLR M02/M05 A3024 RMK SLP247
Suggested Runway: 30

NOTAMs

190190 CYYZ TORONTO/LESTER B.PEARSON INTL CYYZ RNAV(GNSS) Z RWY 23, RNAV (GNSS) X RWY 23 APCH: LPV AND LNAV/VNAV MINIMA: NOT AUTH LNAV MINIMA: ALL CAT TO READ: 1020 (463) 1 RVR 50 DIST/ALT TABLE, CONSTANT DESCENT ANGLE AND RATE OF DESCENT INFO NOT USEABLE 1902181631 TIL APRX 1905161800 

190276 CYYZ TORONTO/LESTER B.PEARSON INTL CYYZ RWY 15L/33R CLSD 0430-1000 1430-1800 1903190430 TIL 1903191800 

190277 CYYZ TORONTO/LESTER B.PEARSON INTL CYYZ RWY 15R/33L CLSD MAR 20-21 0430-1000 MAR 21 1430-1800 1903200430 TIL 1903211800 

190252 CYOW OTTAWA/MACDONALD-CARTIER INTL CYOW TWY P CLSD 1903171411 TIL 1903181700 

190253 CYOW OTTAWA/MACDONALD-CARTIER INTL CYOW TWY M NORTH OF RWY 04/22 CLSD 1903171411 TIL 1903181700 

190128 CYTZ TORONTO/BILLY BISHOP TORONTO CITY AIRPORT CYTZ RWY 08/26 AND 06/24 CLSD 0301-1045 DLY 1903180301 TIL 1903191045 

180389 CYHM HAMILTON CYHM AMEND PUB: APN V PERMANENTLY CLSD 

190052 CYHM HAMILTON CYHM RNAV (GNSS) Z RWY 24 APCH: LPV MINIMA: NOT AUTH LNAV/VNAV MINIMA: NOT AUTH LNAV MINIMA TO READ: 1260 (505) 1 1/2 DIST/ALT TABLE, CONSTANT DESCENT ANGLE AND RATE OF DESCENT INFO NOT USEABLE 1903082205 TIL APRX 1906061800 

190074 CYKF KITCHENER/WATERLOO CYKF TWY B CLSD BTN TWY A AND BA 1902191750 TIL APRX 1905191500